Terminal Aerodrome Forecast
Issued by NWS

Home | Current Version | Previous Version | Text Only | Print | Product List | Glossary On
Versions: 1 2 3 4 5 6 7 8 9 10 11 12
000
FTUS43 KSGF 032300
TAFJLN
TAF
KJLN 032320Z 0400/0424 20012G22KT P6SM SCT070 BKN250
     FM040200 18010KT P6SM SCT250 WS020/20040KT
     FM041500 20015G21KT P6SM SCT250=

USA.gov is the U.S. government's official web portal to all federal, state and local government web resources and services.